createdAt,value
2023-03-22T00:00:19.359Z,21.58
2023-03-22T00:01:23.725Z,21.57
2023-03-22T00:02:28.032Z,21.59
2023-03-22T00:03:32.489Z,21.63
2023-03-22T00:04:36.883Z,21.64
2023-03-22T00:05:41.270Z,21.65
2023-03-22T00:06:45.598Z,21.64
2023-03-22T00:07:49.929Z,21.64
2023-03-22T00:08:54.293Z,21.62
2023-03-22T00:09:58.588Z,21.59
2023-03-22T00:11:02.880Z,21.57
2023-03-22T00:12:07.218Z,21.63
2023-03-22T00:13:11.517Z,21.63
2023-03-22T00:14:15.841Z,21.59
2023-03-22T00:15:20.124Z,21.57
2023-03-22T00:16:24.550Z,21.56
2023-03-22T00:17:29.149Z,21.59
2023-03-22T00:18:33.481Z,21.57
2023-03-22T00:19:37.789Z,21.56
2023-03-22T00:20:42.090Z,21.57
2023-03-22T00:21:47.383Z,21.6
2023-03-22T00:22:51.747Z,21.59
2023-03-22T00:23:56.047Z,21.59
2023-03-22T00:25:00.352Z,21.58
2023-03-22T00:26:04.691Z,21.54
2023-03-22T00:27:08.994Z,21.53
2023-03-22T00:28:13.318Z,21.56
2023-03-22T00:29:17.632Z,21.58
2023-03-22T00:30:21.939Z,21.56
2023-03-22T00:31:26.332Z,21.53
2023-03-22T00:32:30.831Z,21.59
2023-03-22T00:33:35.132Z,21.62
2023-03-22T00:34:39.432Z,21.66
2023-03-22T00:35:43.755Z,21.67
2023-03-22T00:36:48.259Z,21.68
2023-03-22T00:37:52.566Z,21.68
2023-03-22T00:38:56.873Z,21.68
2023-03-22T00:40:01.174Z,21.67
2023-03-22T00:41:05.486Z,21.67
2023-03-22T00:42:09.786Z,21.69
2023-03-22T00:43:14.086Z,21.69
2023-03-22T00:44:18.363Z,21.69
2023-03-22T00:45:22.674Z,21.7
2023-03-22T00:46:26.979Z,21.71
2023-03-22T00:47:31.551Z,21.7
2023-03-22T00:48:35.842Z,21.66
2023-03-22T00:49:40.172Z,21.65
2023-03-22T00:50:44.481Z,21.66
2023-03-22T00:51:48.753Z,21.68
2023-03-22T00:52:53.073Z,21.65
2023-03-22T00:53:57.370Z,21.67
2023-03-22T00:55:01.647Z,21.68
2023-03-22T00:56:06.013Z,21.66
2023-03-22T00:57:10.371Z,21.66
2023-03-22T00:58:14.662Z,21.66
2023-03-22T00:59:18.937Z,21.64
2023-03-22T01:00:23.267Z,21.67
2023-03-22T01:01:27.681Z,21.64
2023-03-22T01:02:32.134Z,21.65
2023-03-22T01:03:36.445Z,21.65
2023-03-22T01:04:40.944Z,21.67
2023-03-22T01:05:45.392Z,21.65
2023-03-22T01:06:49.713Z,21.63
2023-03-22T01:07:54.030Z,21.62
2023-03-22T01:08:58.342Z,21.59
2023-03-22T01:10:02.649Z,21.59
2023-03-22T01:11:06.950Z,21.6
2023-03-22T01:12:11.276Z,21.63
2023-03-22T01:13:17.834Z,21.61
2023-03-22T01:14:22.238Z,21.62
2023-03-22T01:15:29.071Z,21.61
2023-03-22T01:16:33.938Z,21.59
2023-03-22T01:17:38.442Z,21.58
2023-03-22T01:18:42.777Z,21.59
2023-03-22T01:19:47.070Z,21.6
2023-03-22T01:20:51.376Z,21.62
2023-03-22T01:21:55.711Z,21.63
2023-03-22T01:23:00.021Z,21.59
2023-03-22T01:24:04.356Z,21.59
2023-03-22T01:25:08.664Z,21.59
2023-03-22T01:26:13.008Z,21.58
2023-03-22T01:27:17.290Z,21.59
2023-03-22T01:28:21.937Z,21.59
2023-03-22T01:29:29.894Z,21.61
2023-03-22T01:30:34.237Z,21.64
2023-03-22T01:31:38.755Z,21.64
2023-03-22T01:32:43.040Z,21.65
2023-03-22T01:33:47.414Z,21.63
2023-03-22T01:34:51.717Z,21.6
2023-03-22T01:35:56.090Z,21.61
2023-03-22T01:37:00.656Z,21.64
2023-03-22T01:38:04.961Z,21.66
2023-03-22T01:39:09.326Z,21.64
2023-03-22T01:40:13.646Z,21.62
2023-03-22T01:41:17.980Z,21.58
2023-03-22T01:42:22.283Z,21.58
2023-03-22T01:43:26.584Z,21.57
2023-03-22T01:44:30.913Z,21.53
2023-03-22T01:45:35.218Z,21.53
2023-03-22T01:46:39.571Z,21.53
2023-03-22T01:47:44.101Z,21.51
2023-03-22T01:48:48.639Z,21.48
2023-03-22T01:49:52.997Z,21.52
2023-03-22T01:50:57.288Z,21.5
2023-03-22T01:52:01.602Z,21.47
2023-03-22T01:53:05.893Z,21.5
2023-03-22T01:54:10.188Z,21.53
2023-03-22T01:55:14.532Z,21.56
2023-03-22T01:56:18.851Z,21.58
2023-03-22T01:57:23.216Z,21.57
2023-03-22T01:58:27.505Z,21.56
2023-03-22T01:59:31.767Z,21.54
2023-03-22T02:00:36.097Z,21.52
2023-03-22T02:01:41.214Z,21.53
2023-03-22T02:02:45.643Z,21.53
2023-03-22T02:03:50.106Z,21.53
2023-03-22T02:04:54.491Z,21.56
2023-03-22T02:05:58.778Z,21.56
2023-03-22T02:07:03.060Z,21.54
2023-03-22T02:08:07.414Z,21.55
2023-03-22T02:09:12.788Z,21.58
2023-03-22T02:10:17.070Z,21.56
2023-03-22T02:11:21.375Z,21.55
2023-03-22T02:12:25.687Z,21.57
2023-03-22T02:13:30.015Z,21.56
2023-03-22T02:14:34.303Z,21.55
2023-03-22T02:15:38.626Z,21.56
2023-03-22T02:16:43.024Z,21.53
2023-03-22T02:17:47.343Z,21.5
2023-03-22T02:18:51.624Z,21.51
2023-03-22T02:19:55.921Z,21.52
2023-03-22T02:21:02.388Z,21.52
2023-03-22T02:22:06.799Z,21.55
2023-03-22T02:23:11.087Z,21.57
2023-03-22T02:24:15.424Z,21.55
2023-03-22T02:25:19.701Z,21.53
2023-03-22T02:26:24.114Z,21.52
2023-03-22T02:27:28.429Z,21.53
2023-03-22T02:28:32.748Z,21.52
2023-03-22T02:29:37.071Z,21.52
2023-03-22T02:30:41.521Z,21.51
2023-03-22T02:31:45.920Z,21.51
2023-03-22T02:32:50.272Z,21.52
2023-03-22T02:33:54.562Z,21.5
2023-03-22T02:34:58.880Z,21.52
2023-03-22T02:36:03.138Z,21.49
2023-03-22T02:37:07.458Z,21.51
2023-03-22T02:38:11.801Z,21.52
2023-03-22T02:39:16.087Z,21.49
2023-03-22T02:40:20.391Z,21.48
2023-03-22T02:41:24.718Z,21.48
2023-03-22T02:42:29.038Z,21.46
2023-03-22T02:43:33.371Z,21.47
2023-03-22T02:44:37.661Z,21.47
2023-03-22T02:45:41.932Z,21.49
2023-03-22T02:46:46.374Z,21.51
2023-03-22T02:47:50.899Z,21.52
2023-03-22T02:48:55.446Z,21.53
2023-03-22T02:49:59.766Z,21.54
2023-03-22T02:51:04.072Z,21.55
2023-03-22T02:52:08.354Z,21.54
2023-03-22T02:53:12.633Z,21.51
2023-03-22T02:54:16.921Z,21.51
2023-03-22T02:55:21.242Z,21.5
2023-03-22T02:56:25.569Z,21.47
2023-03-22T02:57:29.887Z,21.44
2023-03-22T02:58:34.181Z,21.44
2023-03-22T02:59:38.451Z,21.48
2023-03-22T03:00:42.966Z,21.48
2023-03-22T03:01:47.533Z,21.5
2023-03-22T03:02:52.062Z,21.47
2023-03-22T03:03:56.337Z,21.49
2023-03-22T03:05:00.634Z,21.48
2023-03-22T03:06:04.925Z,21.47
2023-03-22T03:07:09.235Z,21.46
2023-03-22T03:08:13.515Z,21.47
2023-03-22T03:09:17.823Z,21.48
2023-03-22T03:10:22.125Z,21.49
2023-03-22T03:11:26.409Z,21.46
2023-03-22T03:12:30.735Z,21.47
2023-03-22T03:13:35.084Z,21.48
2023-03-22T03:14:39.362Z,21.46
2023-03-22T03:15:43.696Z,21.42
2023-03-22T03:16:47.998Z,21.41
2023-03-22T03:17:52.289Z,21.44
2023-03-22T03:18:56.790Z,21.43
2023-03-22T03:20:01.060Z,21.42
2023-03-22T03:21:05.385Z,21.43
2023-03-22T03:22:09.730Z,21.44
2023-03-22T03:23:14.045Z,21.42
2023-03-22T03:24:18.386Z,21.44
2023-03-22T03:25:22.664Z,21.41
2023-03-22T03:26:26.986Z,21.42
2023-03-22T03:27:31.299Z,21.41
2023-03-22T03:28:35.597Z,21.39
2023-03-22T03:29:39.939Z,21.39
2023-03-22T03:30:44.259Z,21.4
2023-03-22T03:31:48.555Z,21.38
2023-03-22T03:32:52.949Z,21.37
2023-03-22T03:33:57.244Z,21.4
2023-03-22T03:35:01.594Z,21.39
2023-03-22T03:36:05.905Z,21.38
2023-03-22T03:37:10.194Z,21.38
2023-03-22T03:38:14.526Z,21.39
2023-03-22T03:39:18.820Z,21.41
2023-03-22T03:40:23.145Z,21.4
2023-03-22T03:41:27.484Z,21.39
2023-03-22T03:42:31.827Z,21.39
2023-03-22T03:43:36.190Z,21.36
2023-03-22T03:44:40.494Z,21.37
2023-03-22T03:45:44.817Z,21.41
2023-03-22T03:46:49.399Z,21.43
2023-03-22T03:47:53.712Z,21.41
2023-03-22T03:48:58.088Z,21.43
2023-03-22T03:50:02.404Z,21.46
2023-03-22T03:51:06.714Z,21.47
2023-03-22T03:52:11.048Z,21.44
2023-03-22T03:53:15.332Z,21.42
2023-03-22T03:54:19.634Z,21.43
2023-03-22T03:55:24.216Z,21.41
2023-03-22T03:56:28.489Z,21.43
2023-03-22T03:57:32.800Z,21.42
2023-03-22T03:58:37.250Z,21.42
2023-03-22T03:59:41.550Z,21.41
2023-03-22T04:00:45.838Z,21.42
2023-03-22T04:01:50.448Z,21.45
2023-03-22T04:02:55.350Z,21.43
2023-03-22T04:03:59.685Z,21.4
2023-03-22T04:05:04.148Z,21.38
2023-03-22T04:06:08.465Z,21.39
2023-03-22T04:07:12.761Z,21.38
2023-03-22T04:08:17.076Z,21.38
2023-03-22T04:09:21.379Z,21.37
2023-03-22T04:10:26.687Z,21.37
2023-03-22T04:11:30.973Z,21.34
2023-03-22T04:12:35.258Z,21.35
2023-03-22T04:13:39.559Z,21.33
2023-03-22T04:14:43.862Z,21.33
2023-03-22T04:15:48.211Z,21.38
2023-03-22T04:16:52.591Z,21.39
2023-03-22T04:17:57.080Z,21.37
2023-03-22T04:19:01.388Z,21.36
2023-03-22T04:20:05.996Z,21.37
2023-03-22T04:21:10.394Z,21.37
2023-03-22T04:22:14.808Z,21.37
2023-03-22T04:23:19.139Z,21.39
2023-03-22T04:24:23.538Z,21.37
2023-03-22T04:25:27.897Z,21.39
2023-03-22T04:26:32.287Z,21.42
2023-03-22T04:27:36.652Z,21.4
2023-03-22T04:28:40.948Z,21.41
2023-03-22T04:29:45.251Z,21.42
2023-03-22T04:30:49.577Z,21.42
2023-03-22T04:31:54.191Z,21.43
2023-03-22T04:32:58.544Z,21.42
2023-03-22T04:34:02.814Z,21.43
2023-03-22T04:35:07.104Z,21.45
2023-03-22T04:36:11.388Z,21.43
2023-03-22T04:37:15.731Z,21.42
2023-03-22T04:38:20.051Z,21.46
2023-03-22T04:39:24.328Z,21.44
2023-03-22T04:40:28.671Z,21.43
2023-03-22T04:41:32.951Z,21.46
2023-03-22T04:42:37.284Z,21.45
2023-03-22T04:43:41.629Z,21.44
2023-03-22T04:44:45.923Z,21.44
2023-03-22T04:45:50.220Z,21.46
2023-03-22T04:46:54.639Z,21.45
2023-03-22T04:47:59.008Z,21.44
2023-03-22T04:49:03.542Z,21.45
2023-03-22T04:50:07.891Z,21.48
2023-03-22T04:51:12.198Z,21.46
2023-03-22T04:52:16.464Z,21.47
2023-03-22T04:53:20.844Z,21.46
2023-03-22T04:54:25.307Z,21.48
2023-03-22T04:55:29.590Z,21.47
2023-03-22T04:56:33.958Z,21.48
2023-03-22T04:57:38.273Z,21.47
2023-03-22T04:58:42.581Z,21.47
2023-03-22T04:59:46.909Z,21.49
2023-03-22T05:00:51.268Z,21.56
2023-03-22T05:01:55.617Z,21.66
2023-03-22T05:03:00.206Z,21.61
2023-03-22T05:04:04.738Z,21.57
2023-03-22T05:05:09.048Z,21.5
2023-03-22T05:06:13.395Z,21.46
2023-03-22T05:07:17.696Z,21.4
2023-03-22T05:08:21.990Z,21.35
2023-03-22T05:09:26.404Z,21.34
2023-03-22T05:10:30.712Z,21.33
2023-03-22T05:11:35.038Z,21.35
2023-03-22T05:12:39.356Z,21.33
2023-03-22T05:13:43.686Z,21.31
2023-03-22T05:14:48.028Z,21.33
2023-03-22T05:15:52.704Z,21.33
2023-03-22T05:16:57.127Z,21.37
2023-03-22T05:18:01.443Z,21.33
2023-03-22T05:20:10.054Z,21.33
2023-03-22T05:21:14.369Z,21.33
2023-03-22T05:22:18.672Z,21.32
2023-03-22T05:23:22.935Z,21.3
2023-03-22T05:24:27.253Z,21.34
2023-03-22T05:25:31.608Z,21.43
2023-03-22T05:26:35.937Z,21.44
2023-03-22T05:27:40.228Z,21.47
2023-03-22T05:28:44.526Z,21.49
2023-03-22T05:29:48.876Z,21.52
2023-03-22T05:30:55.297Z,21.56
2023-03-22T05:32:00.940Z,21.63
2023-03-22T05:33:05.245Z,21.67
2023-03-22T05:34:11.831Z,21.71
2023-03-22T05:35:16.240Z,21.75
2023-03-22T05:36:20.711Z,21.79
2023-03-22T05:37:24.997Z,21.81
2023-03-22T05:38:29.295Z,21.85
2023-03-22T05:39:33.595Z,21.86
2023-03-22T05:40:38.216Z,21.88
2023-03-22T05:41:43.613Z,21.88
2023-03-22T05:42:47.946Z,21.92
2023-03-22T05:43:52.222Z,21.94
2023-03-22T05:44:56.542Z,21.94
2023-03-22T05:46:00.881Z,21.98
2023-03-22T05:47:05.290Z,21.98
2023-03-22T05:48:09.920Z,21.98
2023-03-22T05:49:14.659Z,21.96
2023-03-22T05:50:18.980Z,22
2023-03-22T05:51:23.317Z,21.99
2023-03-22T05:52:27.654Z,22
2023-03-22T05:53:32.001Z,22.01
2023-03-22T05:54:36.331Z,22.01
2023-03-22T05:55:40.613Z,22.01
2023-03-22T05:56:45.007Z,22.01
2023-03-22T05:57:49.282Z,22.01
2023-03-22T05:58:53.600Z,22.02
2023-03-22T05:59:57.879Z,22.02
2023-03-22T06:01:02.204Z,22.02
2023-03-22T06:02:06.564Z,22.02
2023-03-22T06:03:11.023Z,22.01
2023-03-22T06:04:18.881Z,22.01
2023-03-22T06:05:23.179Z,21.99
2023-03-22T06:06:27.483Z,21.99
2023-03-22T06:07:31.803Z,21.99
2023-03-22T06:08:36.077Z,21.97
2023-03-22T06:09:40.404Z,21.95
2023-03-22T06:10:44.687Z,21.93
2023-03-22T06:11:49.003Z,21.93
2023-03-22T06:12:53.316Z,21.91
2023-03-22T06:13:57.852Z,21.9
2023-03-22T06:15:02.167Z,21.89
2023-03-22T06:16:06.633Z,21.87
2023-03-22T06:17:11.124Z,21.85
2023-03-22T06:18:15.498Z,21.86
2023-03-22T06:19:19.803Z,21.84
2023-03-22T06:20:24.122Z,21.85
2023-03-22T06:21:28.501Z,21.85
2023-03-22T06:22:32.774Z,21.84
2023-03-22T06:23:37.132Z,21.83
2023-03-22T06:24:41.444Z,21.82
2023-03-22T06:25:45.749Z,21.81
2023-03-22T06:26:50.088Z,21.8
2023-03-22T06:27:54.403Z,21.79
2023-03-22T06:28:58.738Z,21.79
2023-03-22T06:30:03.072Z,21.77
2023-03-22T06:31:07.495Z,21.78
2023-03-22T06:32:12.308Z,21.77
2023-03-22T06:33:16.614Z,21.76
2023-03-22T06:34:20.903Z,21.75
2023-03-22T06:35:25.187Z,21.76
2023-03-22T06:36:29.776Z,21.78
2023-03-22T06:37:34.221Z,21.77
2023-03-22T06:38:38.528Z,21.75
2023-03-22T06:39:42.848Z,21.75
2023-03-22T06:40:47.129Z,21.76
2023-03-22T06:41:51.451Z,21.73
2023-03-22T06:42:55.736Z,21.74
2023-03-22T06:44:00.091Z,21.73
2023-03-22T06:45:04.424Z,21.74
2023-03-22T06:46:08.773Z,21.74
2023-03-22T06:47:13.297Z,21.73
2023-03-22T06:48:17.733Z,21.72
2023-03-22T06:49:22.298Z,21.73
2023-03-22T06:50:26.591Z,21.72
2023-03-22T06:51:30.958Z,21.71
2023-03-22T06:52:35.314Z,21.69
2023-03-22T06:53:39.592Z,21.7
2023-03-22T06:54:43.882Z,21.69
2023-03-22T06:55:48.176Z,21.7
2023-03-22T06:56:52.492Z,21.69
2023-03-22T06:57:56.805Z,21.69
2023-03-22T06:59:01.097Z,21.67
2023-03-22T07:00:05.423Z,21.66
2023-03-22T07:01:09.859Z,21.67
2023-03-22T07:02:14.285Z,21.68
2023-03-22T07:03:18.572Z,21.68
2023-03-22T07:04:22.944Z,21.69
2023-03-22T07:05:27.399Z,21.69
2023-03-22T07:06:31.690Z,21.68
2023-03-22T07:07:36.098Z,21.67
2023-03-22T07:08:40.395Z,21.66
2023-03-22T07:09:44.739Z,21.66
2023-03-22T07:10:49.034Z,21.66
2023-03-22T07:11:53.366Z,21.63
2023-03-22T07:12:57.674Z,21.64
2023-03-22T07:14:02.206Z,21.65
2023-03-22T07:15:06.561Z,21.65
2023-03-22T07:16:10.947Z,21.65
2023-03-22T07:17:15.536Z,21.65
2023-03-22T07:18:19.895Z,21.67
2023-03-22T07:19:24.194Z,21.68
2023-03-22T07:20:28.471Z,21.69
2023-03-22T07:21:32.930Z,21.71
2023-03-22T07:22:37.226Z,21.73
2023-03-22T07:23:41.546Z,21.76
2023-03-22T07:24:55.959Z,21.74
2023-03-22T07:26:04.540Z,21.73
2023-03-22T07:27:08.884Z,21.75
2023-03-22T07:28:13.214Z,21.75
2023-03-22T07:29:17.515Z,21.74
2023-03-22T07:30:21.842Z,21.74
2023-03-22T07:31:26.171Z,21.76
2023-03-22T07:32:30.521Z,21.72
2023-03-22T07:33:35.134Z,21.71
2023-03-22T07:34:39.499Z,21.72
2023-03-22T07:35:43.876Z,21.71
2023-03-22T07:36:48.360Z,21.72
2023-03-22T07:37:52.665Z,21.73
2023-03-22T07:38:57.141Z,21.71
2023-03-22T07:40:01.441Z,21.69
2023-03-22T07:41:05.927Z,21.7
2023-03-22T07:42:10.239Z,21.68
2023-03-22T07:43:14.570Z,21.67
2023-03-22T07:44:18.875Z,21.69
2023-03-22T07:45:23.353Z,21.66
2023-03-22T07:46:28.061Z,21.63
2023-03-22T07:47:40.649Z,21.65
2023-03-22T07:48:45.466Z,21.65
2023-03-22T07:49:49.763Z,21.64
2023-03-22T07:50:54.081Z,21.64
2023-03-22T07:51:58.393Z,21.64
2023-03-22T07:53:02.684Z,21.65
2023-03-22T07:54:07.776Z,21.66
2023-03-22T07:55:12.250Z,21.66
2023-03-22T07:56:16.650Z,21.65
2023-03-22T07:57:20.953Z,21.65
2023-03-22T07:58:25.255Z,21.67
2023-03-22T07:59:29.597Z,21.66
2023-03-22T08:00:33.916Z,21.65
2023-03-22T08:01:38.314Z,21.64
2023-03-22T08:02:42.696Z,21.63
2023-03-22T08:03:47.108Z,21.66
2023-03-22T08:04:53.385Z,21.61
2023-03-22T08:06:00.118Z,21.6
2023-03-22T08:07:04.399Z,21.6
2023-03-22T08:08:08.678Z,21.63
2023-03-22T08:09:13.010Z,21.63
2023-03-22T08:10:17.314Z,21.63
2023-03-22T08:11:21.649Z,21.6
2023-03-22T08:12:25.986Z,21.62
2023-03-22T08:13:30.305Z,21.63
2023-03-22T08:14:36.722Z,21.65
2023-03-22T08:15:41.631Z,21.65
2023-03-22T08:16:46.029Z,21.67
2023-03-22T08:17:50.516Z,21.69
2023-03-22T08:18:54.810Z,21.71
2023-03-22T08:19:59.115Z,21.7
2023-03-22T08:21:03.517Z,21.7
2023-03-22T08:22:07.877Z,21.72
2023-03-22T08:23:12.199Z,21.72
2023-03-22T08:24:16.550Z,21.71
2023-03-22T08:25:20.836Z,21.71
2023-03-22T08:26:25.154Z,21.7
2023-03-22T08:27:29.688Z,21.71
2023-03-22T08:28:34.101Z,21.71
2023-03-22T08:29:38.419Z,21.7
2023-03-22T08:30:42.712Z,21.7
2023-03-22T08:31:47.184Z,21.7
2023-03-22T08:32:51.739Z,21.72
2023-03-22T08:33:56.071Z,21.72
2023-03-22T08:35:00.389Z,21.72
2023-03-22T08:36:04.789Z,21.72
2023-03-22T08:37:09.167Z,21.75
2023-03-22T08:38:13.452Z,21.71
2023-03-22T08:39:17.747Z,21.72
2023-03-22T08:40:22.100Z,21.7
2023-03-22T08:41:26.605Z,21.69
2023-03-22T08:42:30.958Z,21.69
2023-03-22T08:43:35.241Z,21.68
2023-03-22T08:44:39.549Z,21.7
2023-03-22T08:45:43.985Z,21.68
2023-03-22T08:46:48.782Z,21.68
2023-03-22T08:47:53.168Z,21.69
2023-03-22T08:48:57.621Z,21.69
2023-03-22T08:50:01.941Z,21.67
2023-03-22T08:51:06.403Z,21.68
2023-03-22T08:52:10.723Z,21.65
2023-03-22T08:53:15.032Z,21.67
2023-03-22T08:54:19.375Z,21.67
2023-03-22T08:55:23.660Z,21.67
2023-03-22T08:56:30.713Z,21.67
2023-03-22T08:57:37.022Z,21.65
2023-03-22T08:58:42.881Z,21.65
2023-03-22T08:59:47.181Z,21.66
2023-03-22T09:00:51.508Z,21.64
2023-03-22T09:01:56.335Z,21.65
2023-03-22T09:03:01.032Z,21.65
2023-03-22T09:04:05.397Z,21.65
2023-03-22T09:05:13.253Z,21.66
2023-03-22T09:06:17.602Z,21.67
2023-03-22T09:07:22.030Z,21.66
2023-03-22T09:08:26.358Z,21.66
2023-03-22T09:09:30.644Z,21.65
2023-03-22T09:10:35.056Z,21.66
2023-03-22T09:11:39.345Z,21.65
2023-03-22T09:12:43.709Z,21.65
2023-03-22T09:13:48.030Z,21.68
2023-03-22T09:14:52.366Z,21.68
2023-03-22T09:15:59.404Z,21.67
2023-03-22T09:17:03.910Z,21.69
2023-03-22T09:18:08.200Z,21.69
2023-03-22T09:19:12.950Z,21.69
2023-03-22T09:20:17.260Z,21.69
2023-03-22T09:21:21.586Z,21.69
2023-03-22T09:22:26.045Z,21.69
2023-03-22T09:23:30.403Z,21.7
2023-03-22T09:24:34.801Z,21.71
2023-03-22T09:25:39.405Z,21.73
2023-03-22T09:26:44.650Z,21.7
2023-03-22T09:27:48.937Z,21.71
2023-03-22T09:28:53.220Z,21.73
2023-03-22T09:29:57.533Z,21.75
2023-03-22T09:31:01.907Z,21.73
2023-03-22T09:32:06.389Z,21.73
2023-03-22T09:33:10.797Z,21.74
2023-03-22T09:34:15.119Z,21.73
2023-03-22T09:35:19.555Z,21.74
2023-03-22T09:36:24.150Z,21.74
2023-03-22T09:37:28.455Z,21.72
2023-03-22T09:38:32.842Z,21.72
2023-03-22T09:39:37.352Z,21.71
2023-03-22T09:40:41.694Z,21.69
2023-03-22T09:41:45.987Z,21.72
2023-03-22T09:42:50.313Z,21.72
2023-03-22T09:43:54.639Z,21.69
2023-03-22T09:44:58.939Z,21.71
2023-03-22T09:46:03.241Z,21.71
2023-03-22T09:47:07.637Z,21.7
2023-03-22T09:48:12.017Z,21.71
2023-03-22T09:49:16.573Z,21.68
2023-03-22T09:50:20.913Z,21.68
2023-03-22T09:51:25.331Z,21.69
2023-03-22T09:52:29.790Z,21.69
2023-03-22T09:53:34.270Z,21.7
2023-03-22T09:54:38.695Z,21.68
2023-03-22T09:55:46.069Z,21.68
2023-03-22T09:56:50.460Z,21.67
2023-03-22T09:57:54.785Z,21.68
2023-03-22T09:58:59.069Z,21.68
2023-03-22T10:00:03.372Z,21.67
2023-03-22T10:01:07.801Z,21.67
2023-03-22T10:02:12.549Z,21.67
2023-03-22T10:03:17.235Z,21.68
2023-03-22T10:04:21.661Z,21.68
2023-03-22T10:05:26.106Z,21.66
2023-03-22T10:06:30.513Z,21.66
2023-03-22T10:07:34.900Z,21.66
2023-03-22T10:08:39.212Z,21.66
2023-03-22T10:09:43.522Z,21.66
2023-03-22T10:10:47.836Z,21.67
2023-03-22T10:11:52.141Z,21.66
2023-03-22T10:12:56.600Z,21.65
2023-03-22T10:14:00.918Z,21.65
2023-03-22T10:15:05.237Z,21.67
2023-03-22T10:16:09.593Z,21.66
2023-03-22T10:17:14.249Z,21.67
2023-03-22T10:18:18.803Z,21.68
2023-03-22T10:19:23.121Z,21.68
2023-03-22T10:20:27.438Z,21.68
2023-03-22T10:21:31.734Z,21.69
2023-03-22T10:22:36.100Z,21.7
2023-03-22T10:23:42.296Z,21.68
2023-03-22T10:24:47.896Z,21.68
2023-03-22T10:25:52.170Z,21.69
2023-03-22T10:26:56.459Z,21.7
2023-03-22T10:28:00.749Z,21.69
2023-03-22T10:29:05.034Z,21.69
2023-03-22T10:30:09.370Z,21.69
2023-03-22T10:31:13.772Z,21.68
2023-03-22T10:32:18.306Z,21.69
2023-03-22T10:33:22.837Z,21.68
2023-03-22T10:34:27.125Z,21.66
2023-03-22T10:35:31.560Z,21.69
2023-03-22T10:36:36.106Z,21.69
2023-03-22T10:37:41.421Z,21.69
2023-03-22T10:38:45.731Z,21.68
2023-03-22T10:39:50.041Z,21.67
2023-03-22T10:40:54.324Z,21.66
2023-03-22T10:41:58.674Z,21.66
2023-03-22T10:43:03.079Z,21.66
2023-03-22T10:44:07.376Z,21.66
2023-03-22T10:45:11.688Z,21.66
2023-03-22T10:46:16.286Z,21.66
2023-03-22T10:47:20.817Z,21.66
2023-03-22T10:48:25.198Z,21.65
2023-03-22T10:49:29.692Z,21.65
2023-03-22T10:50:33.989Z,21.64
2023-03-22T10:51:38.278Z,21.63
2023-03-22T10:52:42.718Z,21.63
2023-03-22T10:53:47.000Z,21.65
2023-03-22T10:54:51.306Z,21.64
2023-03-22T10:55:55.559Z,21.63
2023-03-22T10:56:59.918Z,21.64
2023-03-22T10:58:04.240Z,21.66
2023-03-22T10:59:08.544Z,21.67
2023-03-22T11:00:12.838Z,21.66
2023-03-22T11:01:17.327Z,21.64
2023-03-22T11:02:22.247Z,21.65
2023-03-22T11:03:27.194Z,21.64
2023-03-22T11:04:31.633Z,21.65
2023-03-22T11:05:35.911Z,21.65
2023-03-22T11:06:40.869Z,21.65
2023-03-22T11:07:45.192Z,21.65
2023-03-22T11:08:49.656Z,21.66
2023-03-22T11:09:53.959Z,21.66
2023-03-22T11:10:58.276Z,21.65
2023-03-22T11:12:02.887Z,21.66
2023-03-22T11:13:07.200Z,21.66
2023-03-22T11:14:11.531Z,21.68
2023-03-22T11:15:15.815Z,21.69
2023-03-22T11:16:20.220Z,21.68
2023-03-22T11:17:24.766Z,21.68
2023-03-22T11:18:29.184Z,21.68
2023-03-22T11:19:33.498Z,21.69
2023-03-22T11:20:37.916Z,21.69
2023-03-22T11:21:43.179Z,21.69
2023-03-22T11:22:47.501Z,21.69
2023-03-22T11:23:51.862Z,21.69
2023-03-22T11:24:56.173Z,21.69
2023-03-22T11:26:00.476Z,21.69
2023-03-22T11:27:04.786Z,21.7
2023-03-22T11:28:09.146Z,21.7
2023-03-22T11:29:13.506Z,21.7
2023-03-22T11:30:17.848Z,21.71
2023-03-22T11:31:22.228Z,21.7
2023-03-22T11:32:26.863Z,21.69
2023-03-22T11:33:31.440Z,21.7
2023-03-22T11:34:35.739Z,21.7
2023-03-22T11:35:40.141Z,21.71
2023-03-22T11:36:44.627Z,21.7
2023-03-22T11:37:48.912Z,21.71
2023-03-22T11:38:53.307Z,21.71
2023-03-22T11:39:57.684Z,21.69
2023-03-22T11:41:02.020Z,21.71
2023-03-22T11:42:06.370Z,21.71
2023-03-22T11:43:10.732Z,21.71
2023-03-22T11:44:15.080Z,21.71
2023-03-22T11:45:19.450Z,21.7
2023-03-22T11:46:23.841Z,21.71
2023-03-22T11:47:28.419Z,21.69
2023-03-22T11:48:32.968Z,21.69
2023-03-22T11:49:37.688Z,21.71
2023-03-22T11:50:42.284Z,21.71
2023-03-22T11:51:47.141Z,21.73
2023-03-22T11:52:51.451Z,21.72
2023-03-22T11:53:55.789Z,21.71
2023-03-22T11:55:00.171Z,21.72
2023-03-22T11:56:04.502Z,21.71
2023-03-22T11:57:08.852Z,21.69
2023-03-22T11:58:13.201Z,21.67
2023-03-22T11:59:17.496Z,21.68
2023-03-22T12:00:21.827Z,21.7
2023-03-22T12:01:26.135Z,21.69
2023-03-22T12:02:30.544Z,21.7
2023-03-22T12:03:37.707Z,21.7
2023-03-22T12:04:43.608Z,21.7
2023-03-22T12:05:48.101Z,21.7
2023-03-22T12:06:52.632Z,21.72
2023-03-22T12:07:56.931Z,21.71
2023-03-22T12:09:01.385Z,21.73
2023-03-22T12:10:05.671Z,21.73
2023-03-22T12:11:09.980Z,21.74
2023-03-22T12:12:14.311Z,21.75
2023-03-22T12:13:18.724Z,21.75
2023-03-22T12:14:23.185Z,21.74
2023-03-22T12:15:27.503Z,21.74
2023-03-22T12:16:31.997Z,21.75
2023-03-22T12:17:36.616Z,21.77
2023-03-22T12:18:41.054Z,21.77
2023-03-22T12:19:48.029Z,21.78
2023-03-22T12:20:52.515Z,21.77
2023-03-22T12:21:56.806Z,21.76
2023-03-22T12:23:01.099Z,21.74
2023-03-22T12:24:05.420Z,21.74
2023-03-22T12:25:09.720Z,21.74
2023-03-22T12:26:14.090Z,21.74
2023-03-22T12:27:18.420Z,21.71
2023-03-22T12:28:22.743Z,21.7
2023-03-22T12:29:27.053Z,21.7
2023-03-22T12:30:31.370Z,21.71
2023-03-22T12:31:35.761Z,21.7
2023-03-22T12:32:40.517Z,21.7
2023-03-22T12:33:44.940Z,21.69
2023-03-22T12:34:50.852Z,21.7
2023-03-22T12:36:18.434Z,21.69
2023-03-22T12:37:22.966Z,21.7
2023-03-22T12:38:27.291Z,21.7
2023-03-22T12:39:31.571Z,21.69
2023-03-22T12:40:35.885Z,21.69
2023-03-22T12:41:40.578Z,21.69
2023-03-22T12:42:51.066Z,21.68
2023-03-22T12:44:02.600Z,21.68
2023-03-22T12:45:07.147Z,21.68
2023-03-22T12:46:11.427Z,21.66
2023-03-22T12:47:15.883Z,21.65
2023-03-22T12:48:20.554Z,21.65
2023-03-22T12:49:25.441Z,21.67
2023-03-22T12:50:29.888Z,21.64
2023-03-22T12:51:34.189Z,21.65
2023-03-22T12:52:45.039Z,21.66
2023-03-22T12:53:49.802Z,21.64
2023-03-22T12:54:54.124Z,21.66
2023-03-22T12:55:58.432Z,21.67
2023-03-22T12:57:02.804Z,21.66
2023-03-22T12:58:07.204Z,21.67
2023-03-22T12:59:11.552Z,21.67
2023-03-22T13:00:15.863Z,21.66
2023-03-22T13:01:20.246Z,21.68
2023-03-22T13:02:24.869Z,21.67
2023-03-22T13:03:30.065Z,21.66
2023-03-22T13:04:34.910Z,21.66
2023-03-22T13:05:39.371Z,21.67
2023-03-22T13:06:44.495Z,21.67
2023-03-22T13:07:48.837Z,21.67
2023-03-22T13:08:53.144Z,21.66
2023-03-22T13:09:57.557Z,21.65
2023-03-22T13:11:01.880Z,21.65
2023-03-22T13:12:06.209Z,21.65
2023-03-22T13:13:10.534Z,21.65
2023-03-22T13:14:14.895Z,21.66
2023-03-22T13:15:25.968Z,21.66
2023-03-22T13:16:45.169Z,21.66
2023-03-22T13:17:49.747Z,21.67
2023-03-22T13:18:54.410Z,21.66
2023-03-22T13:19:58.781Z,21.66
2023-03-22T13:21:03.177Z,21.67
2023-03-22T13:22:07.513Z,21.67
2023-03-22T13:23:11.803Z,21.68
2023-03-22T13:24:16.157Z,21.67
2023-03-22T13:25:20.489Z,21.67
2023-03-22T13:26:24.793Z,21.67
2023-03-22T13:27:29.144Z,21.68
2023-03-22T13:28:33.501Z,21.67
2023-03-22T13:29:37.792Z,21.69
2023-03-22T13:30:42.101Z,21.69
2023-03-22T13:31:46.477Z,21.69
2023-03-22T13:32:52.616Z,21.69
2023-03-22T13:34:00.013Z,21.68
2023-03-22T13:35:04.315Z,21.67
2023-03-22T13:36:08.719Z,21.67
2023-03-22T13:37:13.408Z,21.69
2023-03-22T13:38:17.782Z,21.69
2023-03-22T13:39:22.085Z,21.7
2023-03-22T13:40:26.462Z,21.69
2023-03-22T13:41:30.819Z,21.71
2023-03-22T13:42:35.144Z,21.7
2023-03-22T13:43:39.465Z,21.71
2023-03-22T13:44:43.807Z,21.7
2023-03-22T13:45:48.195Z,21.71
2023-03-22T13:46:52.595Z,21.72
2023-03-22T13:47:57.041Z,21.71
2023-03-22T13:49:01.998Z,21.73
2023-03-22T13:50:07.422Z,21.74
2023-03-22T13:51:11.907Z,21.75
2023-03-22T13:52:16.244Z,21.77
2023-03-22T13:53:20.527Z,21.77
2023-03-22T13:54:25.175Z,21.81